Time;durP1;ratioP1;P1;durP2;ratioP2;P2;SDS_P1;SDS_P2;PMS_P1;PMS_P2;Temp;Humidity;BMP_temperature;BMP_pressure;BME280_temperature;BME280_humidity;BME280_pressure;Samples;Min_cycle;Max_cycle;Signal;HPM_P1;HPM_P2
2021/10/15 00:00:59;;;;;;;;;;;;;;;18.26;53.60;100065.22;2094184;28;20049;-44
2021/10/15 00:01:59;;;;;;;;;;;;;;;18.26;53.58;100060.63;2092852;28;20318;-44
2021/10/15 00:03:00;;;;;;;;;;;;;;;18.25;53.56;100058.91;2092624;28;19916;-46
2021/10/15 00:04:01;;;;;;;;;;;;;;;18.25;53.62;100053.44;2086282;28;20353;-45
2021/10/15 00:05:01;;;;;;;;;;;;;;;18.25;53.61;100061.63;2086598;28;19924;-44
2021/10/15 00:06:01;;;;;;;;;;;;;;;18.24;53.56;100062.63;2092698;28;19916;-44
2021/10/15 00:07:01;;;;;;;;;;;;;;;18.26;53.60;100067.94;2091283;28;19973;-45
2021/10/15 00:08:02;;;;;;;;;;;;;;;18.24;53.53;100057.16;2082260;28;20312;-45
2021/10/15 00:09:02;;;;;;;;;;;;;;;18.24;53.57;100057.16;2086233;28;19909;-44
2021/10/15 00:10:03;;;;;;;;;;;;;;;18.25;53.54;100058.91;2086876;28;20740;-45
2021/10/15 00:11:03;;;;;;;;;;;;;;;18.23;53.68;100055.47;2086953;28;19916;-44
2021/10/15 00:12:04;;;;;;;;;;;;;;;18.24;53.71;100062.63;2086630;28;19911;-43
2021/10/15 00:13:04;;;;;;;;;;;;;;;18.25;53.48;100058.91;2097314;28;19913;-44
2021/10/15 00:14:04;;;;;;;;;;;;;;;18.25;53.60;100058.91;2087114;28;19912;-45
2021/10/15 00:15:05;;;;;;;;;;;;;;;18.24;53.73;100062.63;2085888;28;20361;-44
2021/10/15 00:16:05;;;;;;;;;;;;;;;18.25;53.69;100064.38;2087979;28;19942;-45
2021/10/15 00:17:06;;;;;;;;;;;;;;;18.24;53.62;100059.88;2086224;28;20316;-44
2021/10/15 00:18:06;;;;;;;;;;;;;;;18.24;53.67;100061.75;2085828;28;20684;-45
2021/10/15 00:19:07;;;;;;;;;;;;;;;18.24;53.49;100068.06;2091575;28;20014;-45
2021/10/15 00:20:07;;;;;;;;;;;;;;;18.23;53.67;100066.38;2087038;28;19950;-45
2021/10/15 00:21:08;;;;;;;;;;;;;;;18.23;53.50;100071.81;2087211;28;20593;-44
2021/10/15 00:22:08;;;;;;;;;;;;;;;18.25;53.71;100068.94;2086108;28;19931;-45
2021/10/15 00:23:09;;;;;;;;;;;;;;;18.22;53.55;100067.34;2093807;28;19916;-44
2021/10/15 00:24:09;;;;;;;;;;;;;;;18.24;53.71;100067.22;2090405;28;19922;-44
2021/10/15 00:25:09;;;;;;;;;;;;;;;18.24;53.58;100067.22;2092691;28;19931;-45
2021/10/15 00:26:10;;;;;;;;;;;;;;;18.23;53.66;100071.81;2092710;28;19912;-44
2021/10/15 00:27:10;;;;;;;;;;;;;;;18.23;53.70;100066.38;2090330;28;19938;-44
2021/10/15 00:28:10;;;;;;;;;;;;;;;18.23;53.56;100066.38;2093695;28;19916;-44
2021/10/15 00:29:10;;;;;;;;;;;;;;;18.24;53.52;100062.63;2088126;28;20286;-44
2021/10/15 00:30:11;;;;;;;;;;;;;;;18.23;53.73;100060.03;2092918;28;19955;-44
2021/10/15 00:31:11;;;;;;;;;;;;;;;18.23;53.75;100060.91;2086078;28;19956;-43
2021/10/15 00:32:11;;;;;;;;;;;;;;;18.22;53.55;100056.44;2093223;28;19927;-44
2021/10/15 00:33:12;;;;;;;;;;;;;;;18.21;53.63;100057.47;2086457;28;20450;-45
2021/10/15 00:34:12;;;;;;;;;;;;;;;18.21;53.73;100052.84;2091809;28;19924;-45
2021/10/15 00:35:13;;;;;;;;;;;;;;;18.22;53.77;100053.72;2091068;28;20692;-44
2021/10/15 00:36:13;;;;;;;;;;;;;;;18.22;53.76;100053.72;2091616;28;20419;-44
2021/10/15 00:37:17;;;;;;;;;;;;;;;18.22;53.51;100059.16;2089516;28;20314;-45
2021/10/15 00:38:18;;;;;;;;;;;;;;;18.22;53.71;100048.25;2092623;28;20352;-45
2021/10/15 00:39:18;;;;;;;;;;;;;;;18.22;53.73;100053.72;2091617;28;20233;-45
2021/10/15 00:40:19;;;;;;;;;;;;;;;18.22;53.75;100053.72;2101886;28;19912;-45
2021/10/15 00:41:19;;;;;;;;;;;;;;;18.23;53.58;100054.56;2090641;28;19912;-45
2021/10/15 00:42:20;;;;;;;;;;;;;;;18.22;53.73;100051.00;2091235;28;19997;-45
2021/10/15 00:43:20;;;;;;;;;;;;;;;18.21;53.85;100054.72;2094137;28;19961;-44
2021/10/15 00:44:21;;;;;;;;;;;;;;;18.21;53.89;100052.00;2090261;28;19920;-44
2021/10/15 00:45:21;;;;;;;;;;;;;;;18.21;53.76;100054.72;2093135;28;19923;-44
2021/10/15 00:46:22;;;;;;;;;;;;;;;18.20;53.90;100056.59;2089398;28;19915;-44
2021/10/15 00:47:22;;;;;;;;;;;;;;;18.20;53.60;100056.59;2087926;28;19931;-44
2021/10/15 00:48:23;;;;;;;;;;;;;;;18.22;53.85;100056.44;2084565;28;20567;-45
2021/10/15 00:49:23;;;;;;;;;;;;;;;18.21;53.98;100049.28;2088606;28;19968;-44
2021/10/15 00:50:23;;;;;;;;;;;;;;;18.21;53.93;100052.00;2088363;28;19959;-44
2021/10/15 00:51:25;;;;;;;;;;;;;;;18.22;53.65;100053.72;2089511;28;20029;-44
2021/10/15 00:52:27;;;;;;;;;;;;;;;18.21;53.73;100055.59;2091948;28;20188;-44
2021/10/15 00:53:27;;;;;;;;;;;;;;;18.21;53.76;100052.00;2092862;28;20014;-45
2021/10/15 00:54:28;;;;;;;;;;;;;;;18.20;53.92;100055.72;2090384;28;19916;-44
2021/10/15 00:55:28;;;;;;;;;;;;;;;18.21;53.90;100054.72;2091103;28;19914;-44
2021/10/15 00:56:30;;;;;;;;;;;;;;;18.20;53.79;100045.69;2089954;28;19915;-44
2021/10/15 00:57:30;;;;;;;;;;;;;;;18.21;53.81;100046.56;2094928;28;19920;-44
2021/10/15 00:58:30;;;;;;;;;;;;;;;18.20;53.90;100047.53;2090204;28;19909;-44
2021/10/15 00:59:31;;;;;;;;;;;;;;;18.20;53.96;100053.00;2088688;28;19982;-44
2021/10/15 01:00:31;;;;;;;;;;;;;;;18.21;54.08;100043.81;2093195;28;20671;-45
2021/10/15 01:01:31;;;;;;;;;;;;;;;18.20;53.95;100044.81;2089514;28;19966;-44
2021/10/15 01:02:32;;;;;;;;;;;;;;;18.20;53.82;100045.69;2082693;28;20029;-45
2021/10/15 01:03:33;;;;;;;;;;;;;;;18.20;54.08;100039.34;2090163;28;20332;-44
2021/10/15 01:04:34;;;;;;;;;;;;;;;18.20;54.11;100039.34;2086925;28;19922;-44
2021/10/15 01:05:35;;;;;;;;;;;;;;;18.20;53.88;100039.34;2092291;28;19904;-45
2021/10/15 01:06:35;;;;;;;;;;;;;;;18.20;54.06;100036.63;2095993;28;20353;-44
2021/10/15 01:07:36;;;;;;;;;;;;;;;18.21;53.86;100041.09;2088806;28;19916;-45
2021/10/15 01:08:40;;;;;;;;;;;;;;;18.20;54.09;100039.34;2093604;28;20611;-44
2021/10/15 01:09:41;;;;;;;;;;;;;;;18.20;53.94;100044.81;2087454;28;19935;-44
2021/10/15 01:10:41;;;;;;;;;;;;;;;18.20;53.94;100039.34;2090598;28;19927;-44
2021/10/15 01:11:42;;;;;;;;;;;;;;;18.19;54.02;100043.97;2085592;28;20135;-45
2021/10/15 01:12:42;;;;;;;;;;;;;;;18.19;54.05;100040.38;2086182;28;20155;-44
2021/10/15 01:13:43;;;;;;;;;;;;;;;18.18;53.93;100036.78;2087939;28;19917;-44
2021/10/15 01:14:43;;;;;;;;;;;;;;;18.19;53.94;100037.66;2086496;28;19924;-44
2021/10/15 01:15:43;;;;;;;;;;;;;;;18.19;54.13;100037.66;2091282;28;20428;-44
2021/10/15 01:16:46;;;;;;;;;;;;;;;18.18;53.99;100034.06;2087681;28;19917;-45
2021/10/15 01:17:46;;;;;;;;;;;;;;;18.18;54.01;100036.78;2087702;28;20606;-44
2021/10/15 01:18:46;;;;;;;;;;;;;;;18.18;54.14;100034.06;2086485;28;20060;-44
2021/10/15 01:19:51;;;;;;;;;;;;;;;18.19;54.12;100034.91;2087643;28;20262;-45
2021/10/15 01:20:52;;;;;;;;;;;;;;;18.18;53.99;100038.66;2087818;28;19916;-44
2021/10/15 01:21:52;;;;;;;;;;;;;;;18.18;54.00;100034.06;2085951;28;19966;-44
2021/10/15 01:22:52;;;;;;;;;;;;;;;18.18;54.13;100036.78;2089253;28;19917;-44
2021/10/15 01:23:53;;;;;;;;;;;;;;;18.18;54.12;100035.94;2088527;28;19916;-44
2021/10/15 01:24:53;;;;;;;;;;;;;;;18.18;54.03;100041.38;2087430;28;20011;-44
2021/10/15 01:25:54;;;;;;;;;;;;;;;18.18;53.96;100030.47;2092006;28;20207;-44
2021/10/15 01:26:55;;;;;;;;;;;;;;;18.18;54.35;100034.06;2090481;28;19923;-44
2021/10/15 01:27:55;;;;;;;;;;;;;;;18.19;54.10;100032.19;2088873;28;19913;-44
2021/10/15 01:28:55;;;;;;;;;;;;;;;18.18;54.10;100038.66;2091497;28;19933;-45
2021/10/15 01:29:55;;;;;;;;;;;;;;;18.18;54.12;100030.47;2086408;28;20270;-44
2021/10/15 01:30:56;;;;;;;;;;;;;;;18.18;54.09;100030.47;2091628;28;19955;-44
2021/10/15 01:31:57;;;;;;;;;;;;;;;18.18;54.17;100025.03;2088947;28;20571;-44
2021/10/15 01:32:57;;;;;;;;;;;;;;;18.17;54.28;100029.59;2087223;28;19927;-43
2021/10/15 01:33:58;;;;;;;;;;;;;;;18.18;54.30;100028.59;2089924;28;19959;-42
2021/10/15 01:34:59;;;;;;;;;;;;;;;18.17;54.14;100023.28;2093556;28;19931;-41
2021/10/15 01:35:59;;;;;;;;;;;;;;;18.17;54.18;100024.13;2087563;28;19916;-42
2021/10/15 01:36:59;;;;;;;;;;;;;;;18.18;54.33;100028.59;2089592;28;20215;-43
2021/10/15 01:37:59;;;;;;;;;;;;;;;18.17;54.20;100021.41;2088620;28;19916;-42
2021/10/15 01:39:00;;;;;;;;;;;;;;;18.17;54.32;100028.75;2088904;28;19916;-43
2021/10/15 01:40:00;;;;;;;;;;;;;;;18.18;54.18;100030.47;2089318;28;20304;-42
2021/10/15 01:41:00;;;;;;;;;;;;;;;18.18;54.10;100025.03;2088410;28;20251;-43
2021/10/15 01:42:01;;;;;;;;;;;;;;;18.17;54.31;100012.38;2089813;28;19904;-42
2021/10/15 01:43:01;;;;;;;;;;;;;;;18.18;54.31;100014.09;2092429;28;19962;-42
2021/10/15 01:44:02;;;;;;;;;;;;;;;18.17;54.31;100017.81;2087818;28;20026;-42
2021/10/15 01:45:02;;;;;;;;;;;;;;;18.18;54.17;100014.09;2092932;28;20663;-42
2021/10/15 01:46:02;;;;;;;;;;;;;;;18.17;54.35;100009.66;2091585;28;19927;-42
2021/10/15 01:47:03;;;;;;;;;;;;;;;18.17;54.39;100006.91;2088280;28;19996;-43
2021/10/15 01:48:04;;;;;;;;;;;;;;;18.17;54.42;100006.91;2088421;28;19946;-43
2021/10/15 01:49:04;;;;;;;;;;;;;;;18.16;54.16;100008.78;2088431;28;20270;-42
2021/10/15 01:50:05;;;;;;;;;;;;;;;18.17;54.23;100001.47;2093931;28;19916;-42
2021/10/15 01:51:05;;;;;;;;;;;;;;;18.17;54.35;100009.66;2087755;28;19922;-43
2021/10/15 01:52:06;;;;;;;;;;;;;;;18.16;54.18;100003.31;2090860;28;19923;-42
2021/10/15 01:53:06;;;;;;;;;;;;;;;18.17;54.42;99998.72;2093886;28;19969;-42
2021/10/15 01:54:06;;;;;;;;;;;;;;;18.17;54.40;100001.47;2087988;28;19951;-42
2021/10/15 01:55:07;;;;;;;;;;;;;;;18.16;54.33;99999.75;2086301;28;19912;-42
2021/10/15 01:56:09;;;;;;;;;;;;;;;18.17;54.28;100001.47;2086825;28;19948;-43
2021/10/15 01:57:09;;;;;;;;;;;;;;;18.16;54.24;99995.16;2086216;28;19928;-42
2021/10/15 01:58:10;;;;;;;;;;;;;;;18.17;54.44;99996.00;2086858;28;20226;-42
2021/10/15 01:59:10;;;;;;;;;;;;;;;18.16;54.40;99997.03;2087662;28;19916;-42
2021/10/15 02:00:12;;;;;;;;;;;;;;;18.16;54.27;99999.75;2095014;28;19916;-42
2021/10/15 02:01:12;;;;;;;;;;;;;;;18.16;54.38;99994.28;2097346;28;19915;-42
2021/10/15 02:02:12;;;;;;;;;;;;;;;18.15;54.44;99989.81;2089314;28;19963;-43
2021/10/15 02:03:12;;;;;;;;;;;;;;;18.16;54.24;99989.69;2093478;28;19923;-43
2021/10/15 02:04:13;;;;;;;;;;;;;;;18.14;54.35;99986.25;2089788;28;20417;-42
2021/10/15 02:05:15;;;;;;;;;;;;;;;18.15;54.40;99989.81;2091315;28;20219;-43
2021/10/15 02:06:15;;;;;;;;;;;;;;;18.15;54.45;99992.56;2088720;28;19923;-43
2021/10/15 02:07:16;;;;;;;;;;;;;;;18.16;54.38;99988.84;2086133;28;19916;-41
2021/10/15 02:08:16;;;;;;;;;;;;;;;18.15;54.40;99987.09;2086820;28;20033;-43
2021/10/15 02:09:16;;;;;;;;;;;;;;;18.15;54.24;99987.97;2084408;28;20564;-42
2021/10/15 02:10:17;;;;;;;;;;;;;;;18.16;54.46;99994.28;2087637;28;19920;-43
2021/10/15 02:11:18;;;;;;;;;;;;;;;18.15;54.53;99993.44;2087362;28;19920;-43
2021/10/15 02:12:18;;;;;;;;;;;;;;;18.16;54.41;99983.38;2086200;28;19916;-42
2021/10/15 02:13:18;;;;;;;;;;;;;;;18.14;54.37;99997.16;2089103;27;20288;-42
2021/10/15 02:14:19;;;;;;;;;;;;;;;18.15;54.49;99987.09;2084734;28;20271;-42
2021/10/15 02:15:19;;;;;;;;;;;;;;;18.15;54.55;99981.63;2087014;28;19958;-42
2021/10/15 02:16:19;;;;;;;;;;;;;;;18.14;54.51;99974.47;2089526;28;20022;-43
2021/10/15 02:17:20;;;;;;;;;;;;;;;18.14;54.40;99978.06;2084299;28;19928;-43
2021/10/15 02:18:22;;;;;;;;;;;;;;;18.14;54.55;99971.75;2089069;28;19956;-42
2021/10/15 02:19:22;;;;;;;;;;;;;;;18.15;54.45;99968.00;2087196;28;20402;-41
2021/10/15 02:20:23;;;;;;;;;;;;;;;18.14;54.42;99969.03;2094049;28;19920;-43
2021/10/15 02:21:23;;;;;;;;;;;;;;;18.14;54.56;99963.56;2083744;28;20102;-42
2021/10/15 02:22:23;;;;;;;;;;;;;;;18.14;54.63;99963.56;2088543;28;20142;-42
2021/10/15 02:23:24;;;;;;;;;;;;;;;18.14;54.55;99960.84;2086206;28;20219;-42
2021/10/15 02:24:25;;;;;;;;;;;;;;;18.13;54.44;99956.41;2089189;28;19916;-43
2021/10/15 02:25:25;;;;;;;;;;;;;;;18.13;54.50;99957.25;2088419;28;19923;-42
2021/10/15 02:26:26;;;;;;;;;;;;;;;18.14;54.57;99963.56;2087106;28;19962;-42
2021/10/15 02:27:26;;;;;;;;;;;;;;;18.12;54.49;99960.97;2087459;28;19916;-43
2021/10/15 02:28:26;;;;;;;;;;;;;;;18.14;54.56;99958.09;2090558;28;19931;-42
2021/10/15 02:29:27;;;;;;;;;;;;;;;18.14;54.61;99960.84;2091593;28;20323;-42
2021/10/15 02:30:28;;;;;;;;;;;;;;;18.12;54.43;99957.38;2090955;28;19916;-42
2021/10/15 02:31:29;;;;;;;;;;;;;;;18.13;54.56;99956.41;2087557;28;19912;-43
2021/10/15 02:32:29;;;;;;;;;;;;;;;18.13;54.50;99956.41;2086526;28;20455;-42
2021/10/15 02:33:30;;;;;;;;;;;;;;;18.13;54.40;99948.22;2092794;28;20260;-44
2021/10/15 02:34:30;;;;;;;;;;;;;;;18.12;54.50;99952.78;2090928;28;20250;-47
2021/10/15 02:35:30;;;;;;;;;;;;;;;18.12;54.55;99952.78;2082473;28;19917;-44
2021/10/15 02:36:31;;;;;;;;;;;;;;;18.13;54.57;99950.94;2089517;28;19970;-44
2021/10/15 02:37:31;;;;;;;;;;;;;;;18.13;54.51;99948.22;2090323;28;19921;-45
2021/10/15 02:38:31;;;;;;;;;;;;;;;18.13;54.67;99959.13;2091104;28;20234;-45
2021/10/15 02:39:32;;;;;;;;;;;;;;;18.13;54.39;99953.66;2092212;28;20135;-45
2021/10/15 02:40:32;;;;;;;;;;;;;;;18.13;54.66;99945.50;2095898;28;20077;-45
2021/10/15 02:41:37;;;;;;;;;;;;;;;18.13;54.58;99950.94;2095721;28;20408;-44
2021/10/15 02:42:37;;;;;;;;;;;;;;;18.14;54.55;99947.19;2084980;28;20011;-44
2021/10/15 02:43:38;;;;;;;;;;;;;;;18.13;54.57;99953.66;2085763;28;19941;-44
2021/10/15 02:44:38;;;;;;;;;;;;;;;18.14;54.47;99952.66;2087547;28;19916;-44
2021/10/15 02:45:39;;;;;;;;;;;;;;;18.12;54.39;99946.47;2088381;28;19916;-45
2021/10/15 02:46:40;;;;;;;;;;;;;;;18.12;54.64;99938.28;2091508;28;20388;-45
2021/10/15 02:47:40;;;;;;;;;;;;;;;18.12;54.61;99943.75;2092737;28;19916;-45
2021/10/15 02:48:41;;;;;;;;;;;;;;;18.12;54.61;99943.75;2088571;28;20963;-44
2021/10/15 02:49:43;;;;;;;;;;;;;;;18.12;54.63;99941.88;2091194;28;20408;-44
2021/10/15 02:50:43;;;;;;;;;;;;;;;18.12;54.43;99941.03;2085705;28;20342;-44
2021/10/15 02:51:43;;;;;;;;;;;;;;;18.13;54.64;99942.75;2093463;28;20213;-44
2021/10/15 02:52:44;;;;;;;;;;;;;;;18.11;54.45;99936.59;2092056;28;19916;-45
2021/10/15 02:53:44;;;;;;;;;;;;;;;18.11;54.49;99936.59;2087634;28;19958;-44
2021/10/15 02:54:45;;;;;;;;;;;;;;;18.11;54.72;99934.72;2094232;28;19923;-45
2021/10/15 02:55:45;;;;;;;;;;;;;;;18.13;54.61;99940.03;2091303;28;19912;-43
2021/10/15 02:56:45;;;;;;;;;;;;;;;18.12;54.49;99935.56;2091316;28;20366;-44
2021/10/15 02:57:46;;;;;;;;;;;;;;;18.11;54.62;99937.44;2092562;28;20742;-45
2021/10/15 02:58:46;;;;;;;;;;;;;;;18.12;54.65;99938.28;2090797;28;19919;-45
2021/10/15 02:59:46;;;;;;;;;;;;;;;18.11;54.48;99929.25;2095060;28;19916;-44
2021/10/15 03:00:47;;;;;;;;;;;;;;;18.12;54.78;99935.56;2089272;28;19916;-44
2021/10/15 03:01:47;;;;;;;;;;;;;;;18.12;54.73;99932.84;2088431;28;19916;-45
2021/10/15 03:02:47;;;;;;;;;;;;;;;18.11;54.72;99931.13;2084222;28;19909;-45
2021/10/15 03:03:48;;;;;;;;;;;;;;;18.11;54.62;99942.03;2087933;28;19916;-44
2021/10/15 03:04:48;;;;;;;;;;;;;;;18.11;54.51;99942.03;2087772;28;19916;-44
2021/10/15 03:05:49;;;;;;;;;;;;;;;18.11;54.82;99936.59;2089947;28;20208;-44
2021/10/15 03:06:49;;;;;;;;;;;;;;;18.12;54.79;99943.75;2093931;28;19904;-45
2021/10/15 03:07:50;;;;;;;;;;;;;;;18.11;54.59;99942.03;2086677;28;20342;-44
2021/10/15 03:08:50;;;;;;;;;;;;;;;18.11;54.69;99942.03;2094473;28;19923;-45
2021/10/15 03:09:50;;;;;;;;;;;;;;;18.11;54.72;99947.50;2089485;28;20110;-43
2021/10/15 03:10:51;;;;;;;;;;;;;;;18.10;54.71;99951.22;2093664;28;19934;-44
2021/10/15 03:11:52;;;;;;;;;;;;;;;18.10;54.93;99951.22;2093549;28;19916;-44
2021/10/15 03:12:53;;;;;;;;;;;;;;;18.11;54.79;99950.22;2092665;28;20389;-44
2021/10/15 03:13:53;;;;;;;;;;;;;;;18.10;54.85;99954.78;2091757;28;19949;-44
2021/10/15 03:14:53;;;;;;;;;;;;;;;18.11;54.85;99958.41;2093743;28;20006;-45
2021/10/15 03:15:54;;;;;;;;;;;;;;;18.11;54.71;99952.97;2088503;28;20660;-45
2021/10/15 03:16:54;;;;;;;;;;;;;;;18.10;54.80;99948.50;2099437;28;20303;-45
2021/10/15 03:17:55;;;;;;;;;;;;;;;18.11;54.72;99947.50;2097478;28;19912;-44
2021/10/15 03:18:55;;;;;;;;;;;;;;;18.10;54.62;99946.63;2089100;28;20335;-44
2021/10/15 03:19:55;;;;;;;;;;;;;;;18.10;54.76;99948.50;2085110;28;19970;-43
2021/10/15 03:20:56;;;;;;;;;;;;;;;18.10;54.83;99948.50;2091700;28;20059;-44
2021/10/15 03:21:56;;;;;;;;;;;;;;;18.09;54.82;99942.19;2093284;28;20316;-45
2021/10/15 03:22:57;;;;;;;;;;;;;;;18.09;54.68;99950.38;2091956;28;19912;-44
2021/10/15 03:23:57;;;;;;;;;;;;;;;18.09;54.69;99946.78;2090410;28;20006;-44
2021/10/15 03:24:57;;;;;;;;;;;;;;;18.09;54.84;99947.63;2096079;28;19919;-43
2021/10/15 03:25:58;;;;;;;;;;;;;;;18.10;54.93;99945.75;2092084;28;19922;-44
2021/10/15 03:26:58;;;;;;;;;;;;;;;18.10;54.59;99951.22;2094676;28;20643;-43
2021/10/15 03:27:58;;;;;;;;;;;;;;;18.09;54.71;99944.06;2094565;28;19916;-44
2021/10/15 03:28:59;;;;;;;;;;;;;;;18.09;54.62;99949.50;2094012;28;19943;-44
2021/10/15 03:29:59;;;;;;;;;;;;;;;18.09;54.65;99949.50;2094414;28;19923;-44
2021/10/15 03:30:59;;;;;;;;;;;;;;;18.09;54.69;99944.06;2092322;28;19959;-44
2021/10/15 03:32:01;;;;;;;;;;;;;;;18.09;54.87;99949.50;2091037;28;19908;-43
2021/10/15 03:33:03;;;;;;;;;;;;;;;18.10;54.84;99953.94;2094462;28;19915;-44
2021/10/15 03:34:03;;;;;;;;;;;;;;;18.09;54.72;99944.06;2094220;28;19978;-43
2021/10/15 03:35:04;;;;;;;;;;;;;;;18.09;54.82;99944.06;2089251;28;19916;-44
2021/10/15 03:36:04;;;;;;;;;;;;;;;18.08;54.70;99939.59;2092109;28;19955;-43
2021/10/15 03:37:05;;;;;;;;;;;;;;;18.08;54.67;99939.59;2091214;28;20744;-44
2021/10/15 03:38:05;;;;;;;;;;;;;;;18.08;54.99;99936.84;2089025;28;19931;-44
2021/10/15 03:39:05;;;;;;;;;;;;;;;18.08;54.81;99940.47;2095351;28;19916;-44
2021/10/15 03:40:06;;;;;;;;;;;;;;;18.08;54.95;99939.59;2094373;28;20026;-44
2021/10/15 03:41:06;;;;;;;;;;;;;;;18.08;54.88;99936.84;2094274;28;19984;-44
2021/10/15 03:42:06;;;;;;;;;;;;;;;18.07;54.86;99935.16;2091084;28;19916;-44
2021/10/15 03:43:07;;;;;;;;;;;;;;;18.07;54.96;99935.16;2095239;28;19920;-44
2021/10/15 03:44:07;;;;;;;;;;;;;;;18.07;54.82;99938.72;2090199;28;19916;-44
2021/10/15 03:45:08;;;;;;;;;;;;;;;18.07;54.90;99936.00;2092845;28;20606;-44
2021/10/15 03:46:08;;;;;;;;;;;;;;;18.08;54.87;99939.59;2095844;28;19922;-44
2021/10/15 03:47:09;;;;;;;;;;;;;;;18.07;54.82;99940.59;2092164;28;19915;-44
2021/10/15 03:48:09;;;;;;;;;;;;;;;18.07;55.00;99937.88;2093001;28;19973;-44
2021/10/15 03:49:10;;;;;;;;;;;;;;;18.07;54.98;99940.59;2094376;28;19915;-43
2021/10/15 03:50:10;;;;;;;;;;;;;;;18.06;54.90;99938.91;2091895;28;19963;-44
2021/10/15 03:51:11;;;;;;;;;;;;;;;18.06;54.84;99937.03;2094868;28;20315;-44
2021/10/15 03:52:11;;;;;;;;;;;;;;;18.06;54.92;99937.03;2092113;28;19904;-44
2021/10/15 03:53:11;;;;;;;;;;;;;;;18.06;55.13;99939.75;2091553;28;19916;-44
2021/10/15 03:54:12;;;;;;;;;;;;;;;18.06;55.09;99928.00;2089549;28;19927;-44
2021/10/15 03:55:12;;;;;;;;;;;;;;;18.06;55.14;99928.00;2085287;28;20465;-44
2021/10/15 03:56:13;;;;;;;;;;;;;;;18.06;55.12;99933.44;2089686;28;19923;-44
2021/10/15 03:57:13;;;;;;;;;;;;;;;18.06;54.93;99928.00;2093166;28;20295;-44
2021/10/15 03:58:13;;;;;;;;;;;;;;;18.05;54.90;99937.16;2094625;28;19920;-45
2021/10/15 03:59:14;;;;;;;;;;;;;;;18.06;54.93;99938.91;2091660;28;19915;-43
2021/10/15 04:00:14;;;;;;;;;;;;;;;18.06;54.89;99933.44;2094955;28;19990;-43
2021/10/15 04:01:15;;;;;;;;;;;;;;;18.05;54.91;99935.28;2086324;28;19917;-44
2021/10/15 04:02:15;;;;;;;;;;;;;;;18.05;55.08;99931.69;2094405;28;19955;-44
2021/10/15 04:03:15;;;;;;;;;;;;;;;18.05;54.96;99934.44;2097011;28;19916;-44
2021/10/15 04:04:16;;;;;;;;;;;;;;;18.05;54.90;99926.25;2092346;28;19919;-44
2021/10/15 04:05:16;;;;;;;;;;;;;;;18.05;55.00;99931.69;2093756;28;20447;-44
2021/10/15 04:06:16;;;;;;;;;;;;;;;18.05;55.19;99929.84;2090591;28;19919;-44
2021/10/15 04:07:17;;;;;;;;;;;;;;;18.05;54.98;99928.97;2080679;28;20020;-44
2021/10/15 04:08:17;;;;;;;;;;;;;;;18.05;54.85;99931.69;2084283;28;20197;-44
2021/10/15 04:09:17;;;;;;;;;;;;;;;18.06;55.04;99933.44;2087916;28;19909;-43
2021/10/15 04:10:18;;;;;;;;;;;;;;;18.06;55.26;99936.16;2093018;28;20592;-44
2021/10/15 04:11:18;;;;;;;;;;;;;;;18.04;54.98;99936.31;2089950;28;20188;-43
2021/10/15 04:12:19;;;;;;;;;;;;;;;18.04;54.96;99930.84;2094660;28;20019;-44
2021/10/15 04:13:19;;;;;;;;;;;;;;;18.04;55.15;99935.44;2092935;28;19912;-44
2021/10/15 04:14:20;;;;;;;;;;;;;;;18.04;55.13;99933.56;2090166;28;19916;-44
2021/10/15 04:15:20;;;;;;;;;;;;;;;18.04;55.00;99930.00;2095044;28;20408;-44
2021/10/15 04:16:21;;;;;;;;;;;;;;;18.04;55.03;99936.31;2091347;28;19938;-44
2021/10/15 04:17:21;;;;;;;;;;;;;;;18.04;55.11;99930.00;2096721;28;19927;-44
2021/10/15 04:18:21;;;;;;;;;;;;;;;18.04;54.94;99930.00;2091434;28;19922;-43
2021/10/15 04:19:21;;;;;;;;;;;;;;;18.03;54.81;99922.81;2094218;28;19915;-44
2021/10/15 04:20:22;;;;;;;;;;;;;;;18.03;55.21;99920.06;2090993;28;20435;-44
2021/10/15 04:21:22;;;;;;;;;;;;;;;18.04;54.98;99924.53;2093242;28;20257;-44
2021/10/15 04:22:24;;;;;;;;;;;;;;;18.04;55.15;99927.28;2087126;28;20429;-43
2021/10/15 04:23:24;;;;;;;;;;;;;;;18.04;55.14;99924.53;2093185;28;19916;-44
2021/10/15 04:24:24;;;;;;;;;;;;;;;18.03;55.08;99917.34;2093597;28;19912;-44
2021/10/15 04:25:25;;;;;;;;;;;;;;;18.03;54.97;99920.97;2086230;28;20126;-44
2021/10/15 04:26:25;;;;;;;;;;;;;;;18.04;55.20;99924.53;2085976;28;19978;-43
2021/10/15 04:27:25;;;;;;;;;;;;;;;18.04;54.85;99919.09;2087711;28;19908;-44
2021/10/15 04:28:26;;;;;;;;;;;;;;;18.03;54.94;99922.81;2091440;28;20349;-43
2021/10/15 04:29:26;;;;;;;;;;;;;;;18.03;54.87;99922.81;2090062;28;20481;-44
2021/10/15 04:30:26;;;;;;;;;;;;;;;18.03;54.90;99922.81;2087357;28;20165;-43
2021/10/15 04:31:27;;;;;;;;;;;;;;;18.03;55.07;99926.41;2092652;28;19989;-44
2021/10/15 04:32:29;;;;;;;;;;;;;;;18.03;55.07;99928.25;2091036;28;19961;-44
2021/10/15 04:33:29;;;;;;;;;;;;;;;18.03;55.08;99922.81;2091505;28;19985;-44
2021/10/15 04:34:29;;;;;;;;;;;;;;;18.03;55.16;99922.81;2092135;28;19960;-44
2021/10/15 04:35:29;;;;;;;;;;;;;;;18.03;55.13;99920.06;2093189;28;19919;-43
2021/10/15 04:36:30;;;;;;;;;;;;;;;18.03;55.00;99920.06;2092479;28;19915;-44
2021/10/15 04:37:30;;;;;;;;;;;;;;;18.03;55.13;99922.81;2098681;28;19970;-43
2021/10/15 04:38:31;;;;;;;;;;;;;;;18.02;55.16;99921.94;2087882;28;20250;-44
2021/10/15 04:39:31;;;;;;;;;;;;;;;18.02;55.03;99921.94;2087105;28;19961;-43
2021/10/15 04:40:31;;;;;;;;;;;;;;;18.03;55.21;99922.81;2086526;28;19919;-44
2021/10/15 04:41:32;;;;;;;;;;;;;;;18.01;55.06;99920.25;2095834;28;19908;-45
2021/10/15 04:42:32;;;;;;;;;;;;;;;18.02;55.01;99921.94;2088614;28;19920;-43
2021/10/15 04:43:33;;;;;;;;;;;;;;;18.02;55.02;99919.22;2093331;28;19978;-45
2021/10/15 04:44:33;;;;;;;;;;;;;;;18.02;55.10;99921.09;2094651;28;20364;-44
2021/10/15 04:45:33;;;;;;;;;;;;;;;18.02;55.14;99915.66;2090425;28;19916;-44
2021/10/15 04:46:34;;;;;;;;;;;;;;;18.01;54.97;99920.25;2091477;28;19912;-43
2021/10/15 04:47:34;;;;;;;;;;;;;;;18.02;55.04;99910.19;2092708;28;19912;-44
2021/10/15 04:48:35;;;;;;;;;;;;;;;18.00;55.06;99924.81;2091934;28;19940;-44
2021/10/15 04:49:35;;;;;;;;;;;;;;;18.02;55.18;99915.66;2094628;28;19926;-44
2021/10/15 04:50:38;;;;;;;;;;;;;;;18.00;55.01;99919.34;2093163;28;20003;-44
2021/10/15 04:51:38;;;;;;;;;;;;;;;18.02;55.16;99921.09;2090216;28;19929;-44
2021/10/15 04:52:39;;;;;;;;;;;;;;;18.01;55.11;99917.53;2093414;28;19912;-44
2021/10/15 04:53:39;;;;;;;;;;;;;;;18.01;55.10;99922.97;2091202;28;20260;-44
2021/10/15 04:54:39;;;;;;;;;;;;;;;18.00;55.05;99922.09;2093487;28;19931;-44
2021/10/15 04:55:40;;;;;;;;;;;;;;;18.02;55.03;99923.81;2089855;28;19904;-44
2021/10/15 04:56:40;;;;;;;;;;;;;;;18.01;55.21;99928.44;2092815;28;19934;-44
2021/10/15 04:57:40;;;;;;;;;;;;;;;18.01;55.18;99925.69;2094038;28;19959;-44
2021/10/15 04:58:41;;;;;;;;;;;;;;;18.00;55.21;99922.09;2091104;28;20415;-44
2021/10/15 04:59:41;;;;;;;;;;;;;;;18.00;55.27;99927.53;2092980;28;20330;-43
2021/10/15 05:00:41;;;;;;;;;;;;;;;17.99;55.03;99923.09;2092750;28;19920;-44
2021/10/15 05:01:42;;;;;;;;;;;;;;;18.00;55.18;99924.81;2093098;28;19972;-44
2021/10/15 05:02:42;;;;;;;;;;;;;;;18.00;54.98;99929.41;2090254;28;19917;-44
2021/10/15 05:03:42;;;;;;;;;;;;;;;18.00;55.01;99930.28;2090839;28;19967;-44
2021/10/15 05:04:42;;;;;;;;;;;;;;;18.00;55.19;99930.28;2089093;28;19966;-43
2021/10/15 05:05:43;;;;;;;;;;;;;;;18.00;55.13;99929.41;2091164;28;19915;-44
2021/10/15 05:06:43;;;;;;;;;;;;;;;18.00;55.25;99933.00;2093157;28;19951;-44
2021/10/15 05:07:44;;;;;;;;;;;;;;;18.00;55.30;99935.72;2088548;28;19958;-44
2021/10/15 05:09:01;;;;;;;;;;;;;;;17.99;55.38;99939.47;2092027;28;19916;-43
2021/10/15 05:10:03;;;;;;;;;;;;;;;17.99;55.10;99934.00;2091476;28;19919;-44
2021/10/15 05:11:03;;;;;;;;;;;;;;;17.99;55.17;99939.47;2093110;28;19912;-44
2021/10/15 05:12:05;;;;;;;;;;;;;;;17.99;55.14;99939.47;2091000;28;19920;-44
2021/10/15 05:13:05;;;;;;;;;;;;;;;17.99;55.22;99941.34;2095962;28;19920;-44
2021/10/15 05:14:06;;;;;;;;;;;;;;;17.99;55.30;99934.00;2091002;28;19923;-44